sensor_id;sensor_type;location;lat;lon;timestamp;P1;durP1;ratioP1;P2;durP2;ratioP2
62332;SDS011;48624;49.812;8.562;2022-10-16T00:01:54;10.35;;;5.45;;
62332;SDS011;48624;49.812;8.562;2022-10-16T00:04:19;10.45;;;4.32;;
62332;SDS011;48624;49.812;8.562;2022-10-16T00:06:44;7.57;;;4.50;;
62332;SDS011;48624;49.812;8.562;2022-10-16T00:09:10;7.93;;;4.28;;
62332;SDS011;48624;49.812;8.562;2022-10-16T00:11:36;7.43;;;4.03;;
62332;SDS011;48624;49.812;8.562;2022-10-16T00:14:06;6.97;;;4.30;;
62332;SDS011;48624;49.812;8.562;2022-10-16T00:16:35;5.60;;;4.03;;
62332;SDS011;48624;49.812;8.562;2022-10-16T00:19:01;5.82;;;3.78;;
62332;SDS011;48624;49.812;8.562;2022-10-16T00:21:28;5.50;;;3.92;;
62332;SDS011;48624;49.812;8.562;2022-10-16T00:23:56;6.38;;;3.60;;
62332;SDS011;48624;49.812;8.562;2022-10-16T00:26:24;5.18;;;3.58;;
62332;SDS011;48624;49.812;8.562;2022-10-16T00:28:50;5.82;;;3.67;;
62332;SDS011;48624;49.812;8.562;2022-10-16T00:31:17;3.92;;;2.65;;
62332;SDS011;48624;49.812;8.562;2022-10-16T00:33:44;3.67;;;2.85;;
62332;SDS011;48624;49.812;8.562;2022-10-16T00:36:10;5.13;;;2.53;;
62332;SDS011;48624;49.812;8.562;2022-10-16T00:38:38;4.80;;;2.58;;
62332;SDS011;48624;49.812;8.562;2022-10-16T00:41:05;3.85;;;1.92;;
62332;SDS011;48624;49.812;8.562;2022-10-16T00:43:33;4.00;;;2.10;;
62332;SDS011;48624;49.812;8.562;2022-10-16T00:46:03;2.40;;;1.63;;
62332;SDS011;48624;49.812;8.562;2022-10-16T00:48:33;3.08;;;1.48;;
62332;SDS011;48624;49.812;8.562;2022-10-16T00:50:58;1.90;;;1.33;;
62332;SDS011;48624;49.812;8.562;2022-10-16T00:53:24;2.67;;;1.83;;
62332;SDS011;48624;49.812;8.562;2022-10-16T00:55:50;2.40;;;1.20;;
62332;SDS011;48624;49.812;8.562;2022-10-16T00:58:16;3.60;;;1.20;;
62332;SDS011;48624;49.812;8.562;2022-10-16T01:00:41;2.80;;;1.33;;
62332;SDS011;48624;49.812;8.562;2022-10-16T01:03:26;2.63;;;0.80;;
62332;SDS011;48624;49.812;8.562;2022-10-16T01:05:57;1.23;;;0.75;;
62332;SDS011;48624;49.812;8.562;2022-10-16T01:08:42;0.73;;;0.68;;
62332;SDS011;48624;49.812;8.562;2022-10-16T01:13:47;1.73;;;0.90;;
62332;SDS011;48624;49.812;8.562;2022-10-16T01:19:12;1.52;;;0.98;;
62332;SDS011;48624;49.812;8.562;2022-10-16T01:21:43;2.58;;;1.13;;
62332;SDS011;48624;49.812;8.562;2022-10-16T01:24:31;2.70;;;0.93;;
62332;SDS011;48624;49.812;8.562;2022-10-16T01:38:00;2.83;;;1.15;;
62332;SDS011;48624;49.812;8.562;2022-10-16T01:40:30;2.83;;;1.48;;
62332;SDS011;48624;49.812;8.562;2022-10-16T01:43:00;2.38;;;1.63;;
62332;SDS011;48624;49.812;8.562;2022-10-16T01:45:29;2.75;;;1.77;;
62332;SDS011;48624;49.812;8.562;2022-10-16T01:47:56;3.53;;;1.90;;
62332;SDS011;48624;49.812;8.562;2022-10-16T01:50:23;3.30;;;2.65;;
62332;SDS011;48624;49.812;8.562;2022-10-16T01:52:50;5.25;;;2.22;;
62332;SDS011;48624;49.812;8.562;2022-10-16T01:55:19;4.82;;;2.88;;
62332;SDS011;48624;49.812;8.562;2022-10-16T01:57:49;4.55;;;2.95;;
62332;SDS011;48624;49.812;8.562;2022-10-16T02:00:17;4.43;;;3.30;;
62332;SDS011;48624;49.812;8.562;2022-10-16T02:02:47;6.05;;;3.60;;
62332;SDS011;48624;49.812;8.562;2022-10-16T02:05:26;5.40;;;3.83;;
62332;SDS011;48624;49.812;8.562;2022-10-16T02:07:56;6.30;;;3.35;;
62332;SDS011;48624;49.812;8.562;2022-10-16T02:10:21;6.82;;;3.90;;
62332;SDS011;48624;49.812;8.562;2022-10-16T02:13:05;5.13;;;3.70;;
62332;SDS011;48624;49.812;8.562;2022-10-16T02:15:34;5.22;;;3.92;;
62332;SDS011;48624;49.812;8.562;2022-10-16T02:17:59;5.53;;;3.95;;
62332;SDS011;48624;49.812;8.562;2022-10-16T02:20:27;6.53;;;3.58;;
62332;SDS011;48624;49.812;8.562;2022-10-16T02:22:55;6.38;;;4.15;;
62332;SDS011;48624;49.812;8.562;2022-10-16T02:25:33;6.05;;;4.30;;
62332;SDS011;48624;49.812;8.562;2022-10-16T02:28:09;7.00;;;4.93;;
62332;SDS011;48624;49.812;8.562;2022-10-16T02:30:52;11.00;;;5.47;;
62332;SDS011;48624;49.812;8.562;2022-10-16T02:33:23;7.50;;;5.25;;
62332;SDS011;48624;49.812;8.562;2022-10-16T02:35:51;8.40;;;5.63;;
62332;SDS011;48624;49.812;8.562;2022-10-16T02:38:18;9.70;;;5.82;;
62332;SDS011;48624;49.812;8.562;2022-10-16T02:40:46;9.43;;;5.75;;
62332;SDS011;48624;49.812;8.562;2022-10-16T02:43:11;11.52;;;7.15;;
62332;SDS011;48624;49.812;8.562;2022-10-16T02:45:37;11.55;;;6.45;;
62332;SDS011;48624;49.812;8.562;2022-10-16T02:48:02;11.50;;;8.10;;
62332;SDS011;48624;49.812;8.562;2022-10-16T02:50:28;9.32;;;6.60;;
62332;SDS011;48624;49.812;8.562;2022-10-16T02:52:53;10.75;;;7.80;;
62332;SDS011;48624;49.812;8.562;2022-10-16T02:55:18;10.70;;;7.22;;
62332;SDS011;48624;49.812;8.562;2022-10-16T02:57:44;12.68;;;7.03;;
62332;SDS011;48624;49.812;8.562;2022-10-16T03:00:10;8.70;;;6.47;;
62332;SDS011;48624;49.812;8.562;2022-10-16T03:02:38;9.60;;;7.20;;
62332;SDS011;48624;49.812;8.562;2022-10-16T03:05:04;8.77;;;6.60;;
62332;SDS011;48624;49.812;8.562;2022-10-16T03:07:29;14.80;;;7.85;;
62332;SDS011;48624;49.812;8.562;2022-10-16T03:09:55;12.35;;;8.00;;
62332;SDS011;48624;49.812;8.562;2022-10-16T03:12:20;15.10;;;8.05;;
62332;SDS011;48624;49.812;8.562;2022-10-16T03:14:46;14.98;;;7.80;;
62332;SDS011;48624;49.812;8.562;2022-10-16T03:17:11;10.70;;;7.65;;
62332;SDS011;48624;49.812;8.562;2022-10-16T03:19:38;15.45;;;8.05;;
62332;SDS011;48624;49.812;8.562;2022-10-16T03:22:03;11.38;;;8.05;;
62332;SDS011;48624;49.812;8.562;2022-10-16T03:24:28;10.73;;;7.20;;
62332;SDS011;48624;49.812;8.562;2022-10-16T03:26:54;10.13;;;7.47;;
62332;SDS011;48624;49.812;8.562;2022-10-16T03:29:19;14.73;;;7.28;;
62332;SDS011;48624;49.812;8.562;2022-10-16T03:31:44;13.40;;;7.75;;
62332;SDS011;48624;49.812;8.562;2022-10-16T03:34:09;15.05;;;7.75;;
62332;SDS011;48624;49.812;8.562;2022-10-16T03:36:35;11.73;;;7.40;;
62332;SDS011;48624;49.812;8.562;2022-10-16T03:39:00;12.40;;;7.80;;
62332;SDS011;48624;49.812;8.562;2022-10-16T03:41:26;11.23;;;7.45;;
62332;SDS011;48624;49.812;8.562;2022-10-16T03:43:51;29.73;;;12.70;;
62332;SDS011;48624;49.812;8.562;2022-10-16T03:46:16;45.80;;;27.67;;
62332;SDS011;48624;49.812;8.562;2022-10-16T03:48:42;34.63;;;21.42;;
62332;SDS011;48624;49.812;8.562;2022-10-16T03:51:07;37.58;;;21.25;;
62332;SDS011;48624;49.812;8.562;2022-10-16T03:53:32;39.75;;;24.48;;
62332;SDS011;48624;49.812;8.562;2022-10-16T03:55:58;34.63;;;19.48;;
62332;SDS011;48624;49.812;8.562;2022-10-16T03:58:23;26.85;;;17.40;;
62332;SDS011;48624;49.812;8.562;2022-10-16T04:00:49;24.70;;;14.35;;
62332;SDS011;48624;49.812;8.562;2022-10-16T04:03:14;14.63;;;9.70;;
62332;SDS011;48624;49.812;8.562;2022-10-16T04:05:40;12.55;;;8.65;;
62332;SDS011;48624;49.812;8.562;2022-10-16T04:08:05;17.92;;;9.20;;
62332;SDS011;48624;49.812;8.562;2022-10-16T04:10:31;16.25;;;10.65;;
62332;SDS011;48624;49.812;8.562;2022-10-16T04:12:56;12.55;;;8.50;;
62332;SDS011;48624;49.812;8.562;2022-10-16T04:15:23;15.25;;;8.48;;
62332;SDS011;48624;49.812;8.562;2022-10-16T04:17:48;17.80;;;8.05;;
62332;SDS011;48624;49.812;8.562;2022-10-16T04:20:14;11.23;;;7.22;;
62332;SDS011;48624;49.812;8.562;2022-10-16T04:22:39;12.60;;;7.80;;
62332;SDS011;48624;49.812;8.562;2022-10-16T04:25:05;17.92;;;8.50;;
62332;SDS011;48624;49.812;8.562;2022-10-16T04:27:30;10.05;;;7.32;;
62332;SDS011;48624;49.812;8.562;2022-10-16T04:29:56;11.27;;;7.68;;
62332;SDS011;48624;49.812;8.562;2022-10-16T04:32:22;13.80;;;7.30;;
62332;SDS011;48624;49.812;8.562;2022-10-16T04:34:47;16.35;;;7.93;;
62332;SDS011;48624;49.812;8.562;2022-10-16T04:37:13;13.45;;;7.70;;
62332;SDS011;48624;49.812;8.562;2022-10-16T04:39:38;9.98;;;6.63;;
62332;SDS011;48624;49.812;8.562;2022-10-16T04:42:03;11.18;;;7.30;;
62332;SDS011;48624;49.812;8.562;2022-10-16T04:44:29;14.27;;;8.23;;
62332;SDS011;48624;49.812;8.562;2022-10-16T04:46:54;11.68;;;7.97;;
62332;SDS011;48624;49.812;8.562;2022-10-16T04:49:19;11.48;;;7.25;;
62332;SDS011;48624;49.812;8.562;2022-10-16T04:51:45;11.27;;;7.95;;
62332;SDS011;48624;49.812;8.562;2022-10-16T04:54:10;11.90;;;7.60;;
62332;SDS011;48624;49.812;8.562;2022-10-16T04:56:35;12.20;;;7.85;;
62332;SDS011;48624;49.812;8.562;2022-10-16T04:59:08;15.80;;;9.05;;
62332;SDS011;48624;49.812;8.562;2022-10-16T05:01:34;12.80;;;8.30;;
62332;SDS011;48624;49.812;8.562;2022-10-16T05:03:59;16.55;;;8.60;;
62332;SDS011;48624;49.812;8.562;2022-10-16T05:06:25;15.15;;;8.35;;
62332;SDS011;48624;49.812;8.562;2022-10-16T05:08:50;14.10;;;8.18;;
62332;SDS011;48624;49.812;8.562;2022-10-16T05:11:15;14.70;;;9.07;;
62332;SDS011;48624;49.812;8.562;2022-10-16T05:13:41;14.60;;;8.27;;
62332;SDS011;48624;49.812;8.562;2022-10-16T05:16:06;16.20;;;8.60;;
62332;SDS011;48624;49.812;8.562;2022-10-16T05:18:31;10.27;;;7.93;;
62332;SDS011;48624;49.812;8.562;2022-10-16T05:20:57;14.35;;;8.57;;
62332;SDS011;48624;49.812;8.562;2022-10-16T05:23:22;11.77;;;8.25;;
62332;SDS011;48624;49.812;8.562;2022-10-16T05:25:55;15.10;;;8.52;;
62332;SDS011;48624;49.812;8.562;2022-10-16T05:28:23;11.73;;;7.85;;
62332;SDS011;48624;49.812;8.562;2022-10-16T05:30:52;13.38;;;8.00;;
62332;SDS011;48624;49.812;8.562;2022-10-16T05:33:21;13.73;;;8.20;;
62332;SDS011;48624;49.812;8.562;2022-10-16T05:35:48;17.40;;;7.75;;
62332;SDS011;48624;49.812;8.562;2022-10-16T05:38:14;12.02;;;7.95;;
62332;SDS011;48624;49.812;8.562;2022-10-16T05:40:40;13.90;;;8.40;;
62332;SDS011;48624;49.812;8.562;2022-10-16T05:43:05;15.20;;;8.52;;
62332;SDS011;48624;49.812;8.562;2022-10-16T05:45:31;12.35;;;7.80;;
62332;SDS011;48624;49.812;8.562;2022-10-16T05:47:56;12.02;;;7.82;;
62332;SDS011;48624;49.812;8.562;2022-10-16T05:50:21;11.00;;;8.40;;
62332;SDS011;48624;49.812;8.562;2022-10-16T05:52:47;13.38;;;8.15;;
62332;SDS011;48624;49.812;8.562;2022-10-16T05:55:13;11.48;;;8.40;;
62332;SDS011;48624;49.812;8.562;2022-10-16T05:57:39;14.50;;;8.98;;
62332;SDS011;48624;49.812;8.562;2022-10-16T06:00:04;13.40;;;8.02;;
62332;SDS011;48624;49.812;8.562;2022-10-16T06:02:30;14.43;;;8.60;;
62332;SDS011;48624;49.812;8.562;2022-10-16T06:04:56;11.45;;;7.47;;
62332;SDS011;48624;49.812;8.562;2022-10-16T06:07:21;12.07;;;7.97;;
62332;SDS011;48624;49.812;8.562;2022-10-16T06:09:48;11.10;;;7.10;;
62332;SDS011;48624;49.812;8.562;2022-10-16T06:12:14;10.77;;;7.40;;
62332;SDS011;48624;49.812;8.562;2022-10-16T06:14:40;10.27;;;6.25;;
62332;SDS011;48624;49.812;8.562;2022-10-16T06:17:08;8.93;;;6.30;;
62332;SDS011;48624;49.812;8.562;2022-10-16T06:19:33;9.25;;;6.57;;
62332;SDS011;48624;49.812;8.562;2022-10-16T06:21:58;9.73;;;6.65;;
62332;SDS011;48624;49.812;8.562;2022-10-16T06:24:27;10.75;;;6.75;;
62332;SDS011;48624;49.812;8.562;2022-10-16T06:26:52;9.15;;;6.05;;
62332;SDS011;48624;49.812;8.562;2022-10-16T06:29:18;11.00;;;6.15;;
62332;SDS011;48624;49.812;8.562;2022-10-16T06:31:43;10.73;;;5.95;;
62332;SDS011;48624;49.812;8.562;2022-10-16T06:34:09;10.38;;;6.00;;
62332;SDS011;48624;49.812;8.562;2022-10-16T06:36:37;11.13;;;5.88;;
62332;SDS011;48624;49.812;8.562;2022-10-16T06:39:03;7.60;;;5.15;;
62332;SDS011;48624;49.812;8.562;2022-10-16T06:41:28;9.00;;;5.95;;
62332;SDS011;48624;49.812;8.562;2022-10-16T06:43:54;8.10;;;5.70;;
62332;SDS011;48624;49.812;8.562;2022-10-16T06:46:20;8.30;;;5.63;;
62332;SDS011;48624;49.812;8.562;2022-10-16T06:48:47;7.82;;;5.60;;
62332;SDS011;48624;49.812;8.562;2022-10-16T06:51:16;7.13;;;5.03;;
62332;SDS011;48624;49.812;8.562;2022-10-16T06:53:47;10.27;;;5.70;;
62332;SDS011;48624;49.812;8.562;2022-10-16T06:56:21;8.55;;;5.55;;
62332;SDS011;48624;49.812;8.562;2022-10-16T06:58:51;7.07;;;4.53;;
62332;SDS011;48624;49.812;8.562;2022-10-16T07:01:19;9.60;;;5.32;;
62332;SDS011;48624;49.812;8.562;2022-10-16T07:03:46;6.88;;;5.40;;
62332;SDS011;48624;49.812;8.562;2022-10-16T07:06:13;5.93;;;4.75;;
62332;SDS011;48624;49.812;8.562;2022-10-16T07:08:41;12.68;;;5.25;;
62332;SDS011;48624;49.812;8.562;2022-10-16T07:11:09;7.25;;;4.30;;
62332;SDS011;48624;49.812;8.562;2022-10-16T07:13:36;6.28;;;4.55;;
62332;SDS011;48624;49.812;8.562;2022-10-16T07:16:10;6.18;;;4.47;;
62332;SDS011;48624;49.812;8.562;2022-10-16T07:18:38;7.13;;;4.38;;
62332;SDS011;48624;49.812;8.562;2022-10-16T07:21:08;6.95;;;4.13;;
62332;SDS011;48624;49.812;8.562;2022-10-16T07:23:35;7.15;;;4.28;;
62332;SDS011;48624;49.812;8.562;2022-10-16T07:26:01;4.50;;;3.53;;
62332;SDS011;48624;49.812;8.562;2022-10-16T07:28:26;7.00;;;3.47;;
62332;SDS011;48624;49.812;8.562;2022-10-16T07:30:52;5.82;;;3.05;;
62332;SDS011;48624;49.812;8.562;2022-10-16T07:33:18;6.63;;;3.70;;
62332;SDS011;48624;49.812;8.562;2022-10-16T07:35:47;7.40;;;3.30;;
62332;SDS011;48624;49.812;8.562;2022-10-16T07:38:14;5.15;;;3.40;;
62332;SDS011;48624;49.812;8.562;2022-10-16T07:40:39;7.82;;;3.00;;
62332;SDS011;48624;49.812;8.562;2022-10-16T07:43:04;4.05;;;3.00;;
62332;SDS011;48624;49.812;8.562;2022-10-16T07:45:30;3.20;;;2.70;;
62332;SDS011;48624;49.812;8.562;2022-10-16T07:47:55;7.63;;;3.45;;
62332;SDS011;48624;49.812;8.562;2022-10-16T07:50:20;5.90;;;3.90;;
62332;SDS011;48624;49.812;8.562;2022-10-16T07:52:46;5.72;;;3.45;;
62332;SDS011;48624;49.812;8.562;2022-10-16T07:55:11;5.55;;;3.60;;
62332;SDS011;48624;49.812;8.562;2022-10-16T07:57:36;7.28;;;4.90;;
62332;SDS011;48624;49.812;8.562;2022-10-16T08:00:02;5.78;;;4.35;;
62332;SDS011;48624;49.812;8.562;2022-10-16T08:02:28;11.00;;;4.80;;
62332;SDS011;48624;49.812;8.562;2022-10-16T08:04:55;7.18;;;4.10;;
62332;SDS011;48624;49.812;8.562;2022-10-16T08:07:20;8.98;;;4.82;;
62332;SDS011;48624;49.812;8.562;2022-10-16T08:09:48;7.93;;;3.80;;
62332;SDS011;48624;49.812;8.562;2022-10-16T08:12:14;6.50;;;3.92;;
62332;SDS011;48624;49.812;8.562;2022-10-16T08:14:40;7.95;;;3.40;;
62332;SDS011;48624;49.812;8.562;2022-10-16T08:17:05;5.85;;;3.50;;
62332;SDS011;48624;49.812;8.562;2022-10-16T08:19:30;8.18;;;2.92;;
62332;SDS011;48624;49.812;8.562;2022-10-16T08:21:59;5.40;;;2.97;;
62332;SDS011;48624;49.812;8.562;2022-10-16T08:24:24;5.70;;;3.15;;
62332;SDS011;48624;49.812;8.562;2022-10-16T08:26:49;5.20;;;3.13;;
62332;SDS011;48624;49.812;8.562;2022-10-16T08:29:15;3.70;;;2.45;;
62332;SDS011;48624;49.812;8.562;2022-10-16T08:31:40;8.88;;;3.78;;
62332;SDS011;48624;49.812;8.562;2022-10-16T08:34:06;9.55;;;4.13;;
62332;SDS011;48624;49.812;8.562;2022-10-16T08:36:31;11.35;;;5.05;;
62332;SDS011;48624;49.812;8.562;2022-10-16T08:38:57;7.40;;;4.45;;
62332;SDS011;48624;49.812;8.562;2022-10-16T08:47:49;8.75;;;4.63;;
62332;SDS011;48624;49.812;8.562;2022-10-16T08:50:26;12.25;;;6.00;;
62332;SDS011;48624;49.812;8.562;2022-10-16T08:52:53;9.45;;;4.63;;
62332;SDS011;48624;49.812;8.562;2022-10-16T08:58:11;10.70;;;4.95;;
62332;SDS011;48624;49.812;8.562;2022-10-16T09:00:39;9.15;;;5.03;;
62332;SDS011;48624;49.812;8.562;2022-10-16T09:11:20;11.60;;;4.68;;
62332;SDS011;48624;49.812;8.562;2022-10-16T09:16:42;9.05;;;4.15;;
62332;SDS011;48624;49.812;8.562;2022-10-16T09:19:17;9.02;;;4.80;;
62332;SDS011;48624;49.812;8.562;2022-10-16T09:21:45;12.88;;;4.80;;
62332;SDS011;48624;49.812;8.562;2022-10-16T09:24:16;7.57;;;4.90;;
62332;SDS011;48624;49.812;8.562;2022-10-16T09:26:43;6.82;;;4.50;;
62332;SDS011;48624;49.812;8.562;2022-10-16T09:29:13;8.32;;;4.82;;
62332;SDS011;48624;49.812;8.562;2022-10-16T09:31:40;6.95;;;4.55;;
62332;SDS011;48624;49.812;8.562;2022-10-16T09:34:08;6.75;;;4.22;;
62332;SDS011;48624;49.812;8.562;2022-10-16T09:36:46;10.10;;;4.07;;
62332;SDS011;48624;49.812;8.562;2022-10-16T09:39:12;7.97;;;3.92;;
62332;SDS011;48624;49.812;8.562;2022-10-16T09:41:38;5.53;;;3.83;;
62332;SDS011;48624;49.812;8.562;2022-10-16T09:44:18;5.80;;;3.50;;
62332;SDS011;48624;49.812;8.562;2022-10-16T09:46:43;6.30;;;3.95;;
62332;SDS011;48624;49.812;8.562;2022-10-16T09:49:21;5.18;;;3.15;;
62332;SDS011;48624;49.812;8.562;2022-10-16T09:51:48;7.93;;;3.47;;
62332;SDS011;48624;49.812;8.562;2022-10-16T09:54:16;5.88;;;2.75;;
62332;SDS011;48624;49.812;8.562;2022-10-16T09:56:43;7.97;;;3.40;;
62332;SDS011;48624;49.812;8.562;2022-10-16T09:59:15;6.90;;;3.67;;
62332;SDS011;48624;49.812;8.562;2022-10-16T10:01:45;8.45;;;3.72;;
62332;SDS011;48624;49.812;8.562;2022-10-16T10:04:13;3.47;;;3.15;;
62332;SDS011;48624;49.812;8.562;2022-10-16T10:06:45;6.80;;;2.72;;
62332;SDS011;48624;49.812;8.562;2022-10-16T10:11:47;3.67;;;2.10;;
62332;SDS011;48624;49.812;8.562;2022-10-16T10:19:47;3.30;;;1.90;;
62332;SDS011;48624;49.812;8.562;2022-10-16T10:22:17;4.18;;;2.17;;
62332;SDS011;48624;49.812;8.562;2022-10-16T10:24:54;4.15;;;2.20;;
62332;SDS011;48624;49.812;8.562;2022-10-16T10:36:08;3.35;;;1.70;;
62332;SDS011;48624;49.812;8.562;2022-10-16T10:39:05;5.88;;;2.15;;
62332;SDS011;48624;49.812;8.562;2022-10-16T10:47:20;4.65;;;2.13;;
62332;SDS011;48624;49.812;8.562;2022-10-16T10:50:22;5.20;;;2.50;;
62332;SDS011;48624;49.812;8.562;2022-10-16T10:56:41;4.28;;;2.47;;
62332;SDS011;48624;49.812;8.562;2022-10-16T10:58:58;3.67;;;1.90;;
62332;SDS011;48624;49.812;8.562;2022-10-16T11:01:48;3.30;;;2.45;;
62332;SDS011;48624;49.812;8.562;2022-10-16T11:06:50;4.03;;;2.30;;
62332;SDS011;48624;49.812;8.562;2022-10-16T11:09:24;4.03;;;2.33;;
62332;SDS011;48624;49.812;8.562;2022-10-16T11:12:00;3.70;;;1.80;;
62332;SDS011;48624;49.812;8.562;2022-10-16T11:17:22;3.22;;;2.15;;
62332;SDS011;48624;49.812;8.562;2022-10-16T11:19:56;3.17;;;1.80;;
62332;SDS011;48624;49.812;8.562;2022-10-16T11:27:50;2.40;;;1.73;;
62332;SDS011;48624;49.812;8.562;2022-10-16T11:30:25;2.70;;;1.50;;
62332;SDS011;48624;49.812;8.562;2022-10-16T11:40:47;4.40;;;2.00;;
62332;SDS011;48624;49.812;8.562;2022-10-16T11:43:17;4.82;;;1.85;;
62332;SDS011;48624;49.812;8.562;2022-10-16T11:45:51;1.70;;;1.60;;
62332;SDS011;48624;49.812;8.562;2022-10-16T11:48:22;2.53;;;1.73;;
62332;SDS011;48624;49.812;8.562;2022-10-16T11:50:53;2.60;;;1.85;;
62332;SDS011;48624;49.812;8.562;2022-10-16T11:56:29;3.88;;;2.42;;
62332;SDS011;48624;49.812;8.562;2022-10-16T11:59:02;7.07;;;2.53;;
62332;SDS011;48624;49.812;8.562;2022-10-16T12:04:18;3.47;;;2.20;;
62332;SDS011;48624;49.812;8.562;2022-10-16T12:07:39;7.18;;;2.60;;
62332;SDS011;48624;49.812;8.562;2022-10-16T12:09:50;3.35;;;1.55;;
62332;SDS011;48624;49.812;8.562;2022-10-16T12:12:26;3.38;;;1.60;;
62332;SDS011;48624;49.812;8.562;2022-10-16T12:15:15;2.38;;;1.80;;
62332;SDS011;48624;49.812;8.562;2022-10-16T12:17:45;6.13;;;2.58;;
62332;SDS011;48624;49.812;8.562;2022-10-16T12:22:36;2.58;;;2.17;;
62332;SDS011;48624;49.812;8.562;2022-10-16T12:25:17;6.45;;;2.50;;
62332;SDS011;48624;49.812;8.562;2022-10-16T12:27:59;3.92;;;1.83;;
62332;SDS011;48624;49.812;8.562;2022-10-16T12:30:35;4.53;;;1.90;;
62332;SDS011;48624;49.812;8.562;2022-10-16T12:33:05;3.20;;;2.10;;
62332;SDS011;48624;49.812;8.562;2022-10-16T12:35:44;3.88;;;2.03;;
62332;SDS011;48624;49.812;8.562;2022-10-16T12:38:20;4.65;;;2.28;;
62332;SDS011;48624;49.812;8.562;2022-10-16T12:40:59;3.03;;;2.08;;
62332;SDS011;48624;49.812;8.562;2022-10-16T12:43:35;4.78;;;2.00;;
62332;SDS011;48624;49.812;8.562;2022-10-16T12:48:30;3.45;;;1.98;;
62332;SDS011;48624;49.812;8.562;2022-10-16T12:50:56;2.58;;;1.80;;
62332;SDS011;48624;49.812;8.562;2022-10-16T12:53:25;3.50;;;2.17;;
62332;SDS011;48624;49.812;8.562;2022-10-16T12:58:53;2.45;;;2.10;;
62332;SDS011;48624;49.812;8.562;2022-10-16T13:04:22;2.80;;;1.67;;
62332;SDS011;48624;49.812;8.562;2022-10-16T13:06:53;4.10;;;1.80;;
62332;SDS011;48624;49.812;8.562;2022-10-16T13:09:29;2.60;;;2.15;;
62332;SDS011;48624;49.812;8.562;2022-10-16T13:15:00;2.60;;;2.03;;
62332;SDS011;48624;49.812;8.562;2022-10-16T13:20:29;2.88;;;1.92;;
62332;SDS011;48624;49.812;8.562;2022-10-16T13:28:28;2.22;;;1.98;;
62332;SDS011;48624;49.812;8.562;2022-10-16T13:30:57;4.22;;;2.75;;
62332;SDS011;48624;49.812;8.562;2022-10-16T13:33:37;4.20;;;2.30;;
62332;SDS011;48624;49.812;8.562;2022-10-16T13:36:05;2.58;;;2.28;;
62332;SDS011;48624;49.812;8.562;2022-10-16T13:38:34;5.22;;;2.65;;
62332;SDS011;48624;49.812;8.562;2022-10-16T13:41:02;4.20;;;2.45;;
62332;SDS011;48624;49.812;8.562;2022-10-16T13:43:43;2.28;;;2.05;;
62332;SDS011;48624;49.812;8.562;2022-10-16T13:48:38;3.08;;;2.40;;
62332;SDS011;48624;49.812;8.562;2022-10-16T13:51:14;3.85;;;2.70;;
62332;SDS011;48624;49.812;8.562;2022-10-16T13:53:42;5.35;;;3.05;;
62332;SDS011;48624;49.812;8.562;2022-10-16T13:56:16;4.03;;;2.60;;
62332;SDS011;48624;49.812;8.562;2022-10-16T13:58:43;4.85;;;3.97;;
62332;SDS011;48624;49.812;8.562;2022-10-16T14:03:45;3.70;;;2.97;;
62332;SDS011;48624;49.812;8.562;2022-10-16T14:06:13;5.65;;;2.88;;
62332;SDS011;48624;49.812;8.562;2022-10-16T14:08:43;4.82;;;3.08;;
62332;SDS011;48624;49.812;8.562;2022-10-16T14:11:11;3.13;;;2.50;;
62332;SDS011;48624;49.812;8.562;2022-10-16T14:13:38;3.90;;;2.65;;
62332;SDS011;48624;49.812;8.562;2022-10-16T14:16:09;4.93;;;3.10;;
62332;SDS011;48624;49.812;8.562;2022-10-16T14:18:36;3.28;;;2.40;;
62332;SDS011;48624;49.812;8.562;2022-10-16T14:21:07;3.20;;;2.33;;
62332;SDS011;48624;49.812;8.562;2022-10-16T14:23:37;4.18;;;2.70;;
62332;SDS011;48624;49.812;8.562;2022-10-16T14:28:38;3.95;;;3.28;;
62332;SDS011;48624;49.812;8.562;2022-10-16T14:33:56;6.57;;;4.80;;
62332;SDS011;48624;49.812;8.562;2022-10-16T14:36:22;3.70;;;2.53;;
62332;SDS011;48624;49.812;8.562;2022-10-16T14:38:59;2.67;;;2.47;;
62332;SDS011;48624;49.812;8.562;2022-10-16T14:41:29;3.72;;;2.33;;
62332;SDS011;48624;49.812;8.562;2022-10-16T14:43:57;20.35;;;3.10;;
62332;SDS011;48624;49.812;8.562;2022-10-16T14:46:29;8.40;;;2.58;;
62332;SDS011;48624;49.812;8.562;2022-10-16T14:51:34;4.68;;;2.22;;
62332;SDS011;48624;49.812;8.562;2022-10-16T14:54:01;2.72;;;1.85;;
62332;SDS011;48624;49.812;8.562;2022-10-16T14:56:29;4.22;;;2.40;;
62332;SDS011;48624;49.812;8.562;2022-10-16T15:01:58;5.03;;;2.35;;
62332;SDS011;48624;49.812;8.562;2022-10-16T15:04:24;4.07;;;3.33;;
62332;SDS011;48624;49.812;8.562;2022-10-16T15:06:49;8.77;;;3.83;;
62332;SDS011;48624;49.812;8.562;2022-10-16T15:09:15;5.70;;;2.80;;
62332;SDS011;48624;49.812;8.562;2022-10-16T15:11:41;7.65;;;3.72;;
62332;SDS011;48624;49.812;8.562;2022-10-16T15:14:11;3.85;;;2.67;;
62332;SDS011;48624;49.812;8.562;2022-10-16T15:16:38;7.10;;;3.40;;
62332;SDS011;48624;49.812;8.562;2022-10-16T15:19:03;3.22;;;2.85;;
62332;SDS011;48624;49.812;8.562;2022-10-16T15:21:30;5.47;;;3.10;;
62332;SDS011;48624;49.812;8.562;2022-10-16T15:23:58;4.82;;;2.88;;
62332;SDS011;48624;49.812;8.562;2022-10-16T15:26:25;7.50;;;3.70;;
62332;SDS011;48624;49.812;8.562;2022-10-16T15:28:52;4.40;;;2.65;;
62332;SDS011;48624;49.812;8.562;2022-10-16T15:31:18;4.43;;;2.47;;
62332;SDS011;48624;49.812;8.562;2022-10-16T15:33:43;4.22;;;2.85;;
62332;SDS011;48624;49.812;8.562;2022-10-16T15:36:12;5.13;;;2.70;;
62332;SDS011;48624;49.812;8.562;2022-10-16T15:38:38;4.70;;;3.25;;
62332;SDS011;48624;49.812;8.562;2022-10-16T15:41:03;4.70;;;3.38;;
62332;SDS011;48624;49.812;8.562;2022-10-16T15:43:29;4.57;;;3.13;;
62332;SDS011;48624;49.812;8.562;2022-10-16T15:46:04;4.28;;;3.30;;
62332;SDS011;48624;49.812;8.562;2022-10-16T15:48:31;4.03;;;3.28;;
62332;SDS011;48624;49.812;8.562;2022-10-16T15:50:58;3.50;;;2.45;;
62332;SDS011;48624;49.812;8.562;2022-10-16T15:53:24;3.80;;;2.67;;
62332;SDS011;48624;49.812;8.562;2022-10-16T15:55:49;4.80;;;2.63;;
62332;SDS011;48624;49.812;8.562;2022-10-16T15:58:14;4.03;;;2.70;;
62332;SDS011;48624;49.812;8.562;2022-10-16T16:00:40;7.55;;;2.90;;
62332;SDS011;48624;49.812;8.562;2022-10-16T16:03:05;4.43;;;2.50;;
62332;SDS011;48624;49.812;8.562;2022-10-16T16:05:31;3.67;;;2.58;;
62332;SDS011;48624;49.812;8.562;2022-10-16T16:07:59;5.43;;;3.10;;
62332;SDS011;48624;49.812;8.562;2022-10-16T16:10:24;7.95;;;3.05;;
62332;SDS011;48624;49.812;8.562;2022-10-16T16:12:50;11.45;;;3.47;;
62332;SDS011;48624;49.812;8.562;2022-10-16T16:15:18;6.35;;;3.45;;
62332;SDS011;48624;49.812;8.562;2022-10-16T16:17:45;7.70;;;3.75;;
62332;SDS011;48624;49.812;8.562;2022-10-16T16:20:10;5.90;;;3.47;;
62332;SDS011;48624;49.812;8.562;2022-10-16T16:22:36;9.25;;;3.72;;
62332;SDS011;48624;49.812;8.562;2022-10-16T16:25:02;5.05;;;3.15;;
62332;SDS011;48624;49.812;8.562;2022-10-16T16:27:27;3.75;;;2.88;;
62332;SDS011;48624;49.812;8.562;2022-10-16T16:29:58;6.13;;;3.65;;
62332;SDS011;48624;49.812;8.562;2022-10-16T16:32:23;3.65;;;3.00;;
62332;SDS011;48624;49.812;8.562;2022-10-16T16:34:49;6.53;;;2.90;;
62332;SDS011;48624;49.812;8.562;2022-10-16T16:37:15;3.78;;;2.55;;
62332;SDS011;48624;49.812;8.562;2022-10-16T16:39:40;6.05;;;3.17;;
62332;SDS011;48624;49.812;8.562;2022-10-16T16:42:05;6.38;;;2.97;;
62332;SDS011;48624;49.812;8.562;2022-10-16T16:44:32;4.10;;;2.78;;
62332;SDS011;48624;49.812;8.562;2022-10-16T16:46:58;5.00;;;2.70;;
62332;SDS011;48624;49.812;8.562;2022-10-16T16:49:23;4.80;;;2.47;;
62332;SDS011;48624;49.812;8.562;2022-10-16T16:51:49;9.30;;;3.17;;
62332;SDS011;48624;49.812;8.562;2022-10-16T16:54:14;5.63;;;3.75;;
62332;SDS011;48624;49.812;8.562;2022-10-16T16:56:40;4.22;;;3.17;;